»·PEaware :: DAL1142 KSLC-KPDX

DAL1142 :: KSLC-KPDX

FLIGHT INFORMATION

Flight Status: Arrived
Operator:
Delta Air Lines
More flights by this operator :: More flights under this callsign
Pilot: Padraig S. (14196)
Aircraft: AIRBUS A320
(A320)
More flights by this aircraft type
Origin: KSLC Salt Lake City Intl
United States
Destination: KPDX Portland Intl
United States
More flights between these airports :: More routes between these airports
Route: CGULL1 TWF J15 BOI J163 BKE DCT JOTBA HHOOD4
File this flight plan on PilotEdge
Remarks: Low Hours PE-IFR Pilot
Altitude:
(Current/Filed)
34,000ft
Speed:
(Current/Filed)
400kts
Departed: 25-Jul-18 06:56 PM
Arrived: 25-Jul-18 08:31 PM
Distance/Time
Traveled:
546nm/1:35
Distance/Time
To Go:
Arrived

Flight Plot

Page will automatically refresh every two minutes.

Flight plan parsing failed; only flown route is shown


Map Options




Map Legend


Flown Route
Filed Route
Departure Airport
Arrival Airport
Navaid (VOR, NDB)
Fix

Horizontal Profiles

Position Reports

Time Latitude Longitude Heading Altitude Ground
Speed
25-Jul-18 18:26 40.788167 -111.979118 85 4236ft 0kts
25-Jul-18 18:27 40.788167 -111.979118 85 4236ft 0kts
25-Jul-18 18:28 40.788167 -111.979118 85 4236ft 0kts
25-Jul-18 18:29 40.788167 -111.979118 85 4236ft 0kts
25-Jul-18 18:30 40.788167 -111.979118 85 4236ft 0kts
25-Jul-18 18:31 40.788167 -111.979118 85 4236ft 0kts
25-Jul-18 18:32 40.788167 -111.979118 85 4236ft 0kts
25-Jul-18 18:33 40.788167 -111.979118 85 4236ft 0kts
25-Jul-18 18:34 40.788167 -111.979118 85 4236ft 0kts
25-Jul-18 18:35 40.788167 -111.979118 85 4236ft 0kts
25-Jul-18 18:36 40.788167 -111.979118 85 4236ft 0kts
25-Jul-18 18:37 40.788167 -111.979118 85 4236ft 0kts
25-Jul-18 18:38 40.788167 -111.979118 85 4236ft 0kts
25-Jul-18 18:39 40.788167 -111.979118 85 4236ft 0kts
25-Jul-18 18:40 40.788167 -111.979118 85 4236ft 0kts
25-Jul-18 18:41 40.788167 -111.979118 85 4236ft 0kts
25-Jul-18 18:42 40.788142 -111.979524 85 4236ft 2kts
25-Jul-18 18:43 40.787988 -111.980124 22 4236ft 0kts
25-Jul-18 18:44 40.787918 -111.980153 18 4236ft 0kts
25-Jul-18 18:45 40.787918 -111.980153 18 4236ft 0kts
25-Jul-18 18:46 40.787918 -111.980153 18 4236ft 0kts
25-Jul-18 18:47 40.787918 -111.980153 18 4236ft 0kts
25-Jul-18 18:48 40.788513 -111.979899 13 4236ft 5kts
25-Jul-18 18:49 40.789767 -111.978129 84 4236ft 9kts
25-Jul-18 18:50 40.789112 -111.976993 173 4236ft 19kts
25-Jul-18 18:51 40.783541 -111.976355 173 4236ft 17kts
25-Jul-18 18:52 40.779243 -111.975720 153 4236ft 15kts
25-Jul-18 18:53 40.776610 -111.974972 175 4236ft 8kts
25-Jul-18 18:54 40.774837 -111.974810 168 4236ft 0kts
25-Jul-18 18:55 40.774837 -111.974810 168 4236ft 0kts
25-Jul-18 18:56 40.774705 -111.974739 147 4236ft 2kts
25-Jul-18 18:57 40.778144 -111.973565 355 4236ft 74kts
25-Jul-18 18:58 40.824666 -111.979207 345 5690ft 221kts
25-Jul-18 18:59 40.885092 -112.016349 332 8714ft 255kts
25-Jul-18 19:00 40.943212 -112.069545 296 11697ft 273kts
25-Jul-18 19:01 40.970219 -112.145306 296 14324ft 280kts
25-Jul-18 19:02 41.003106 -112.237661 295 17251ft 286kts
25-Jul-18 19:03 41.037797 -112.335205 295 19388ft 314kts
25-Jul-18 19:04 41.082691 -112.435953 320 20250ft 368kts
25-Jul-18 19:05 41.167998 -112.508820 322 21427ft 395kts
25-Jul-18 19:06 41.255957 -112.597427 319 23175ft 402kts
25-Jul-18 19:07 41.332495 -112.699382 308 24771ft 404kts
25-Jul-18 19:08 41.408247 -112.810348 307 26256ft 411kts
25-Jul-18 19:09 41.483446 -112.925564 306 27603ft 417kts
25-Jul-18 19:10 41.559779 -113.042759 306 28799ft 423kts
25-Jul-18 19:11 41.637507 -113.162501 306 30002ft 426kts
25-Jul-18 19:12 41.714081 -113.280954 305 31442ft 420kts
25-Jul-18 19:13 41.789538 -113.398130 304 32683ft 418kts
25-Jul-18 19:14 41.864918 -113.515646 304 33838ft 415kts
25-Jul-18 19:15 41.937580 -113.629364 304 34241ft 411kts
25-Jul-18 19:16 42.009554 -113.742440 303 34243ft 412kts
25-Jul-18 19:17 42.081777 -113.856337 303 34243ft 412kts
25-Jul-18 19:18 42.150964 -113.965855 303 34241ft 412kts
25-Jul-18 19:19 42.225065 -114.083142 303 34240ft 412kts
25-Jul-18 19:20 42.298938 -114.200352 303 34245ft 412kts
25-Jul-18 19:21 42.372974 -114.318299 303 34251ft 412kts
25-Jul-18 19:22 42.446945 -114.436614 303 34252ft 412kts
25-Jul-18 19:23 42.521688 -114.554193 304 34253ft 413kts
25-Jul-18 19:24 42.595976 -114.668983 304 34254ft 413kts
25-Jul-18 19:25 42.670778 -114.785202 304 34260ft 414kts
25-Jul-18 19:26 42.746391 -114.903180 304 34253ft 413kts
25-Jul-18 19:27 42.821448 -115.020765 304 34227ft 413kts
25-Jul-18 19:28 42.896632 -115.139027 304 34151ft 415kts
25-Jul-18 19:29 42.972199 -115.258371 304 34147ft 417kts
25-Jul-18 19:30 43.047739 -115.378163 305 34180ft 418kts
25-Jul-18 19:31 43.120099 -115.493380 305 34177ft 417kts
25-Jul-18 19:32 43.195112 -115.613310 305 34158ft 416kts
25-Jul-18 19:33 43.263720 -115.723429 304 34158ft 416kts
25-Jul-18 19:34 43.338588 -115.844073 304 34164ft 416kts
25-Jul-18 19:35 43.413142 -115.964715 304 34162ft 416kts
25-Jul-18 19:36 43.487478 -116.085505 304 34157ft 415kts
25-Jul-18 19:37 43.563204 -116.204459 310 34150ft 420kts
25-Jul-18 19:38 43.650559 -116.311266 312 34139ft 422kts
25-Jul-18 19:39 43.738046 -116.418468 312 34125ft 421kts
25-Jul-18 19:40 43.825538 -116.526085 312 34127ft 421kts
25-Jul-18 19:41 43.912700 -116.633728 312 34130ft 421kts
25-Jul-18 19:42 43.997856 -116.739319 311 34138ft 422kts
25-Jul-18 19:43 44.084701 -116.847441 311 34131ft 422kts
25-Jul-18 19:44 44.167492 -116.950935 311 34119ft 422kts
25-Jul-18 19:45 44.254534 -117.060183 311 34104ft 424kts
25-Jul-18 19:46 44.341005 -117.169164 312 34112ft 426kts
25-Jul-18 19:47 44.428863 -117.280359 312 34192ft 427kts
25-Jul-18 19:48 44.516549 -117.391811 312 34282ft 427kts
25-Jul-18 19:49 44.603882 -117.503284 312 34267ft 426kts
25-Jul-18 19:50 44.691109 -117.615097 312 34255ft 425kts
25-Jul-18 19:51 44.775637 -117.723903 311 34260ft 426kts
25-Jul-18 19:52 44.844398 -117.853316 285 34274ft 410kts
25-Jul-18 19:53 44.866025 -117.999877 277 34273ft 405kts
25-Jul-18 19:54 44.885995 -118.153540 277 34244ft 404kts
25-Jul-18 19:55 44.906003 -118.308771 277 34221ft 403kts
25-Jul-18 19:56 44.925850 -118.464430 277 34223ft 404kts
25-Jul-18 19:57 44.945472 -118.620105 277 34236ft 404kts
25-Jul-18 19:58 44.964132 -118.769853 277 34266ft 405kts
25-Jul-18 19:59 44.983427 -118.926466 277 34248ft 406kts
25-Jul-18 20:00 45.002639 -119.084267 277 33327ft 411kts
25-Jul-18 20:01 45.021827 -119.243773 277 32332ft 415kts
25-Jul-18 20:02 45.041010 -119.405283 278 31335ft 419kts
25-Jul-18 20:03 45.060182 -119.568734 278 30341ft 423kts
25-Jul-18 20:04 45.078507 -119.726958 278 29394ft 427kts
25-Jul-18 20:05 45.097556 -119.893595 278 28391ft 431kts
25-Jul-18 20:06 45.115624 -120.053804 278 27439ft 427kts
25-Jul-18 20:07 45.133936 -120.218367 278 26445ft 422kts
25-Jul-18 20:08 45.152945 -120.381300 279 25452ft 417kts
25-Jul-18 20:09 45.171743 -120.541907 279 24462ft 412kts
25-Jul-18 20:10 45.195632 -120.689259 293 23549ft 410kts
25-Jul-18 20:11 45.239315 -120.820792 293 21901ft 392kts
25-Jul-18 20:12 45.277063 -120.935345 293 20162ft 377kts
25-Jul-18 20:13 45.344745 -121.068595 337 17975ft 374kts
25-Jul-18 20:14 45.413260 -121.165385 298 15878ft 353kts
25-Jul-18 20:15 45.460247 -121.288806 292 13870ft 371kts
25-Jul-18 20:16 45.477935 -121.428572 278 12968ft 343kts
25-Jul-18 20:17 45.491366 -121.555893 281 12965ft 324kts
25-Jul-18 20:18 45.514793 -121.655460 288 12937ft 321kts
25-Jul-18 20:19 45.531042 -121.767982 273 11355ft 315kts
25-Jul-18 20:20 45.535307 -121.879057 273 9753ft 290kts
25-Jul-18 20:21 45.539247 -121.982119 275 8301ft 248kts
25-Jul-18 20:22 45.521962 -122.081000 236 6348ft 236kts
25-Jul-18 20:23 45.492691 -122.140873 235 6108ft 231kts
25-Jul-18 20:24 45.475807 -122.220010 278 5210ft 238kts
25-Jul-18 20:25 45.483100 -122.302428 283 4000ft 230kts
25-Jul-18 20:26 45.505755 -122.366591 299 3210ft 175kts
25-Jul-18 20:27 45.524366 -122.414432 299 2418ft 145kts
25-Jul-18 20:28 45.540466 -122.455907 300 1826ft 141kts
25-Jul-18 20:29 45.556230 -122.496488 300 1187ft 138kts
25-Jul-18 20:30 45.571830 -122.536600 300 579ft 135kts
25-Jul-18 20:31 45.586229 -122.573607 300 41ft 129kts
25-Jul-18 20:32 45.590317 -122.586623 269 38ft 15kts
25-Jul-18 20:33 45.590762 -122.590602 298 38ft 16kts
25-Jul-18 20:34 45.591347 -122.593913 209 38ft 6kts
25-Jul-18 20:35 45.591131 -122.594084 209 38ft 0kts
25-Jul-18 20:36 45.591131 -122.594084 209 38ft 0kts
25-Jul-18 20:37 45.591131 -122.594084 209 38ft 0kts
25-Jul-18 20:38 45.591131 -122.594084 209 38ft 0kts
25-Jul-18 20:39 45.591131 -122.594084 209 38ft 0kts
25-Jul-18 20:40 45.591131 -122.594084 209 38ft 0kts
25-Jul-18 20:41 45.591131 -122.594084 209 38ft 0kts
25-Jul-18 20:42 45.591131 -122.594084 209 38ft 0kts
25-Jul-18 20:43 45.591131 -122.594084 209 38ft 0kts

Navigation Log

Ident Type
Flight plan parsing failed, navigation log unavailable